Fuglevik, Norway

5:38 PM CEST on April 27, 2017 (GMT +0200)
Bredsandkroken | | Change Station

Elev 157 ft 59.41 °N, 10.69 °E | Updated 2 minutes ago

Mostly Cloudy
Mostly Cloudy
46.2 °F
Feels Like 46 °F
N
1.9
Wind Variable Wind from NW
Gusts 4.3 mph

Today
High -- | Low -- °F
--% Chance of Precip.
Yesterday
High -- | Low -- °F
Precip. -- in
Pressure 29.80 in
Visibility 6.2 miles
Clouds Scattered Clouds 4000 ft
Mostly Cloudy 5300 ft
Windchill 46 °F
Dew Point 31 °F
Humidity 55%
Rainfall 0.00 in
Snow Depth Not available.
5:28 AM 9:02 PM
New Moon, 2% visible
METAR ENRY 271520Z 11003KT 040V160 9999 SCT040 BKN053 07/M04 Q1009
Pressure 29.80 in
Visibility 6.2 miles
Clouds Scattered Clouds 4000 ft
Mostly Cloudy 5300 ft
Windchill 46 °F
Dew Point 31 °F
Humidity 55%
Rainfall 0.00 in
Snow Depth Not available.
5:28 AM 9:02 PM
New Moon, 2% visible
METAR ENRY 271520Z 11003KT 040V160 9999 SCT040 BKN053 07/M04 Q1009

Get Severe Weather Alerts

Thanks for signing up!

Be on the lookout for a verification email in your inbox.

You'll start receiving the daily forecast at 8 AM.

×

10-Day Weather Forecast

×

Almanac

Astronomy

Apr. 27, 2017 Rise Set
Actual Time
Civil Twilight
Nautical Twilight
Astronomical Twilight
Moon
Length of Visible Light
Length of Day
Tomorrow will be .
, % of the Moon is Illuminated

Today's Extremes

Country Highs Country Lows

Community

WunderPhotos

WunderBlog® & News

Nearby

Air Quality

  Air Quality AQ Index Pollutant
Not available.

Snow Depth

Station Depth Elevation

Earthquake Activity

City Distance Mag. Time & Date
Minimum magnitude displayed is 2.5.

Coastal Water Temperatures

Place Temperature

Stations

Nearby Weather Stations

Station Location Temp. Windchill Dew Point Humidity Wind Precip. Elev Updated Type